X  Close Metar Aviation Weather Data     EDDH Hamburg Helmut Schmidt Airport
Temperature
55°F Temperature
50°F Dewpoint
82% Humidity



Wind
1 MPH
2 KM/H
0 M/S
1 KTS



Calm
N
Current Conditions

Clear Clear
Pressure 1022.01 (hPa) - 30.18 (inHg)
Visibility 6 (mile) - 9.7 (km)
Airport
Airport-code EDDH

Location: Hamburg Helmut Schmidt Airport
Distance: 11 (mi)

Metar:
EDDH 200450Z AUTO VRB01KT CAVOK 13/10 Q1022 NOSIG

Time: 20-06-2024 06:50 CEST